Home Previsioni Grafici Avvisi Live Satellite Webcam Min e Max Mappe Metar Effemeridi Terremoti Info Glossario

Report METAR

 

LIEB - Cape Bellavista, Italy
Distance from station: SE 54km
Dati ricevuti: 22/01/2019 04:55
Sereno
Sereno
 Vento da ONO
Vento: ONO 6 km/h
Temperatura: 8°C
P.to Rugiada: 2°C
Umidità: 66%
Barometro: 1006 hPa
Summary: Sereno
Visibility: superiore a 10 km
2019/01/22 03:55 LIEB 220355Z 30003KT CAVOK 08/02 Q1006 RMK FEW FEW080 QUK / QUL / VIS MAR 30 KM MON INVIS VIS MIN 9999
LIEO - Olbia/Costa Smer, Italy
Distance from station: NNE 70km
Dati ricevuti: 22/01/2019 04:50
Sereno
Sereno
 Vento da SO
Vento: SO 15 km/h
Temperatura: 8°C
Temperatura Vento: 5°C
P.to Rugiada: 8°C
Umidità: 100%
Barometro: 1008 hPa
Summary: Sereno
Visibility: superiore a 10 km
2019/01/22 03:50 LIEO 220350Z 23008KT CAVOK 08/08 Q1008
 
LIEA - Alghero, Italy
Distance from station: ONO 94km
Dati ricevuti: 22/01/2019 04:50
Few Clouds
Few Clouds
 Vento da O
Vento: O 6 km/h
Temperatura: 8°C
P.to Rugiada: 5°C
Umidità: 82%
Barometro: 1009 hPa
Nuvole: Few Clouds
Visibility: 10 km
Cloud details: Few Clouds 1219 m
2019/01/22 03:50 LIEA 220350Z 28003KT 250V310 9999 FEW040 08/05 Q1009
LIED - Decimomannu(It-A, Italy
Distance from station: SSO 107km
Dati ricevuti: 22/01/2019 04:55
Few Clouds
Few Clouds
 Vento da NNO
Vento: NNO 4 km/h
Temperatura: 7°C
P.to Rugiada: 5°C
Umidità: 87%
Barometro: 1008 hPa
Nuvole: Few Clouds
Visibility: 10 km
Cloud details: Few Clouds 762 m
2019/01/22 03:55 LIED 220355Z 33002KT 9999 FEW025 07/05 Q1008 RMK BKN SCT080 VIS MIN 9999 WIND THR35 /////KT WIND THR17 /////KT BLU
 
LIEE - Cagliari/Elmas(A, Italy
Distance from station: S 116km
Dati ricevuti: 22/01/2019 04:50
Sereno
Sereno
 Vento da NNO
Vento: NNO 7 km/h
Temperatura: 5°C
Temperatura Vento: 3°C
P.to Rugiada: 4°C
Umidità: 93%
Barometro: 1010 hPa
Summary: Sereno
Visibility: superiore a 10 km
2019/01/22 03:50 LIEE 220350Z 34004KT CAVOK 05/04 Q1010
LIEC - Cape Carbonara, Italy
Distance from station: S 133km
Dati ricevuti: 22/01/2019 03:55
Sereno
Sereno
 Vento da ONO
Vento: ONO 35 km/h
Temperatura: 8°C
Temperatura Vento: 3°C
P.to Rugiada: 5°C
Umidità: 82%
Barometro: 1008 hPa
Summary: Sereno
Visibility: superiore a 10 km
2019/01/22 02:55 LIEC 220255Z 29019KT CAVOK 08/05 Q1008 RMK FEW FEW070 QUK / QUL / VIS MAR 20 KM VIS MIN 9999
 
LFKF - Figari (aut), France
Distance from station: N 137km
Dati ricevuti: 22/01/2019 05:00
Molto nuvoloso
Molto nuvoloso
 Vento da NNE
Vento: NNE 6 km/h
Temperatura: 3°C
P.to Rugiada: 2°C
Umidità: 93%
Barometro: 1008 hPa
Nuvole: Molto nuvoloso
Visibility: 10 km
Cloud details: Few Clouds 579 m
Parz. nuvoloso 914 m
Molto nuvoloso 1067 m
2019/01/22 04:00 LFKF 220400Z AUTO 02003KT 9999 FEW019 SCT030 BKN035 03/02 Q1008 TEMPO FEW035TCU
LFKS - Solenzara (fafb), France
Distance from station: N 182km
Dati ricevuti: 22/01/2019 05:00
Parz. nuvoloso
Parz. nuvoloso
 Vento da O
Vento: O 9 km/h
Temperatura: 5°C
Temperatura Vento: 3°C
P.to Rugiada: 4°C
Umidità: 93%
Barometro: 1008 hPa
Nuvole: Parz. nuvoloso
Visibility: 10 km
Cloud details: Parz. nuvoloso 2987 m
2019/01/22 04:00 LFKS 220400Z AUTO 28005KT 9999 SCT098 05/04 Q1008